Time;durP1;ratioP1;P1;durP2;ratioP2;P2;SDS_P1;SDS_P2;PMS_P1;PMS_P2;Temp;Humidity;BMP_temperature;BMP_pressure;BME280_temperature;BME280_humidity;BME280_pressure;Samples;Min_cycle;Max_cycle;Signal;HPM_P1;HPM_P2
2023/05/28 00:00:14;;;;;;;7.20;4.80;;;;;;;16.94;100.00;100044.08;105502;1254;61721;-58
2023/05/28 00:02:43;;;;;;;7.40;4.50;;;;;;;16.92;100.00;100046.54;105416;1251;60325;-59
2023/05/28 00:05:11;;;;;;;5.00;4.30;;;;;;;16.88;100.00;100045.16;105922;1256;71320;-64
2023/05/28 00:07:41;;;;;;;5.10;4.40;;;;;;;16.85;100.00;100047.48;105818;1250;65670;-59
2023/05/28 00:10:10;;;;;;;6.00;4.30;;;;;;;16.81;100.00;100051.03;105693;1256;71402;-59
2023/05/28 00:12:37;;;;;;;5.30;4.70;;;;;;;16.78;100.00;100052.86;105712;1254;60513;-61
2023/05/28 00:15:06;;;;;;;6.10;4.50;;;;;;;16.75;100.00;100058.09;105872;1257;60409;-60
2023/05/28 00:17:34;;;;;;;6.10;4.70;;;;;;;16.74;100.00;100058.70;106023;1251;73536;-60
2023/05/28 00:20:04;;;;;;;7.80;4.90;;;;;;;16.71;100.00;100060.68;105757;1258;66986;-59
2023/05/28 00:22:32;;;;;;;6.70;5.20;;;;;;;16.69;100.00;100062.21;105975;1253;72531;-59
2023/05/28 00:25:00;;;;;;;6.80;4.90;;;;;;;16.66;100.00;100066.66;106023;1257;61622;-63
2023/05/28 00:27:27;;;;;;;5.90;4.60;;;;;;;16.65;100.00;100066.92;105612;1257;59541;-60
2023/05/28 00:29:55;;;;;;;10.60;6.70;;;;;;;16.66;100.00;100061.04;105845;1251;73016;-59
2023/05/28 00:32:23;;;;;;;7.70;5.30;;;;;;;16.66;100.00;100063.35;105743;1251;67051;-60
2023/05/28 00:34:50;;;;;;;8.30;5.20;;;;;;;16.64;100.00;100060.48;105392;1257;72714;-64
2023/05/28 00:37:18;;;;;;;6.30;4.70;;;;;;;16.62;100.00;100057.51;105902;1254;61748;-60
2023/05/28 00:39:47;;;;;;;6.30;4.90;;;;;;;16.60;100.00;100050.86;105826;1256;59701;-59
2023/05/28 00:42:15;;;;;;;7.40;4.40;;;;;;;16.61;100.00;100051.82;105711;1255;73063;-59
2023/05/28 00:44:43;;;;;;;7.30;4.70;;;;;;;16.59;100.00;100046.42;105675;1251;67075;-63
2023/05/28 00:47:11;;;;;;;6.70;4.60;;;;;;;16.58;100.00;100043.73;105948;1251;73502;-64
2023/05/28 00:49:40;;;;;;;6.00;4.60;;;;;;;16.56;100.00;100045.70;105680;1254;61306;-59
2023/05/28 00:52:09;;;;;;;8.00;4.40;;;;;;;16.53;100.00;100043.64;105760;1257;59609;-59
2023/05/28 00:54:37;;;;;;;6.10;4.60;;;;;;;16.50;100.00;100046.72;105669;1258;73121;-64
2023/05/28 00:57:05;;;;;;;7.70;5.10;;;;;;;16.48;100.00;100045.80;105372;1251;67142;-60
2023/05/28 00:59:34;;;;;;;6.00;4.60;;;;;;;16.46;100.00;100046.14;105850;1256;72728;-64
2023/05/28 01:02:01;;;;;;;7.30;4.80;;;;;;;16.45;100.00;100039.45;105763;1253;60392;-59
2023/05/28 01:04:32;;;;;;;7.10;4.70;;;;;;;16.44;100.00;100040.11;105910;1254;59503;-59
2023/05/28 01:07:00;;;;;;;5.90;4.70;;;;;;;16.43;100.00;100032.08;105612;1251;71906;-59
2023/05/28 01:09:28;;;;;;;5.20;4.20;;;;;;;16.41;100.00;100032.99;105875;1254;66110;-60
2023/05/28 01:11:56;;;;;;;5.10;4.30;;;;;;;16.40;100.00;100033.74;105728;1251;72734;-59
2023/05/28 01:14:23;;;;;;;6.70;4.80;;;;;;;16.37;100.00;100031.36;105734;1259;60584;-58
2023/05/28 01:16:51;;;;;;;5.00;4.10;;;;;;;16.35;100.00;100031.99;105971;1257;60144;-64
2023/05/28 01:19:26;;;;;;;5.10;3.90;;;;;;;16.33;100.00;100029.20;105811;1251;73854;-59
2023/05/28 01:21:57;;;;;;;6.90;4.20;;;;;;;16.29;100.00;100030.49;105632;1251;67485;-60
2023/05/28 01:24:24;;;;;;;7.40;4.60;;;;;;;16.28;100.00;100029.27;105790;1251;72789;-59
2023/05/28 01:26:53;;;;;;;9.70;5.30;;;;;;;16.25;100.00;100030.73;105538;1253;60791;-58
2023/05/28 01:29:20;;;;;;;6.00;4.10;;;;;;;16.23;100.00;100030.86;105557;1257;60483;-59
2023/05/28 01:31:48;;;;;;;5.40;4.10;;;;;;;16.21;100.00;100024.32;105463;1254;73934;-59
2023/05/28 01:34:16;;;;;;;6.10;4.40;;;;;;;16.20;100.00;100021.16;105402;1266;65842;-58
2023/05/28 01:37:01;;;;;;;6.70;4.40;;;;;;;16.21;100.00;100026.90;105728;1257;71424;-59
2023/05/28 01:39:32;;;;;;;6.00;4.20;;;;;;;16.20;100.00;100032.17;105579;1251;61742;-59
2023/05/28 01:42:01;;;;;;;7.60;4.60;;;;;;;16.22;100.00;100034.06;105616;1257;60425;-60
2023/05/28 01:44:29;;;;;;;7.40;5.50;;;;;;;16.21;100.00;100034.55;105732;1253;73829;-60
2023/05/28 01:47:22;;;;;;;5.80;4.90;;;;;;;16.19;100.00;100035.02;105667;1251;66942;-60
2023/05/28 01:49:50;;;;;;;9.00;5.40;;;;;;;16.17;100.00;100032.46;105680;1257;71429;-58
2023/05/28 01:52:18;;;;;;;8.90;5.70;;;;;;;16.18;100.00;100032.92;105627;1259;60554;-58
2023/05/28 01:54:46;;;;;;;7.50;5.30;;;;;;;16.21;100.00;100034.91;105968;1251;60335;-63
2023/05/28 01:57:15;;;;;;;9.00;5.30;;;;;;;16.21;100.00;100038.55;105455;1251;73903;-58
2023/05/28 01:59:43;;;;;;;6.60;5.40;;;;;;;16.23;100.00;100040.23;105689;1251;67531;-58
2023/05/28 02:02:11;;;;;;;6.00;5.40;;;;;;;16.23;100.00;100046.22;105786;1256;71403;-59
2023/05/28 02:04:39;;;;;;;8.60;4.90;;;;;;;16.22;100.00;100050.89;105900;1251;61687;-63
2023/05/28 02:07:07;;;;;;;6.50;4.50;;;;;;;16.21;100.00;100052.60;109279;1251;58764;-60
2023/05/28 02:09:34;;;;;;;6.90;4.80;;;;;;;16.22;100.00;100056.05;109191;1251;73951;-59
2023/05/28 02:12:02;;;;;;;6.50;5.80;;;;;;;16.25;100.00;100055.32;109324;1251;66899;-57
2023/05/28 02:14:31;;;;;;;8.50;5.60;;;;;;;16.28;100.00;100054.14;109333;1253;72700;-58
2023/05/28 02:16:59;;;;;;;6.20;4.20;;;;;;;16.35;100.00;100053.45;109211;1251;61756;-63
2023/05/28 02:19:28;;;;;;;10.00;4.80;;;;;;;16.38;100.00;100050.89;109346;1251;60050;-57
2023/05/28 02:21:56;;;;;;;6.90;4.90;;;;;;;16.41;100.00;100055.54;109327;1251;74236;-58
2023/05/28 02:24:25;;;;;;;10.30;4.50;;;;;;;16.43;100.00;100057.75;109230;1251;66274;-59
2023/05/28 02:26:54;;;;;;;6.40;4.50;;;;;;;16.46;100.00;100066.35;109260;1251;72788;-61
2023/05/28 02:29:23;;;;;;;6.10;4.20;;;;;;;16.48;100.00;100066.48;109211;1254;61768;-58
2023/05/28 02:31:52;;;;;;;6.30;4.80;;;;;;;16.49;100.00;100063.87;109248;1251;59831;-58
2023/05/28 02:34:20;;;;;;;9.60;4.70;;;;;;;16.51;100.00;100060.48;109346;1251;73855;-58
2023/05/28 02:36:47;;;;;;;6.30;4.90;;;;;;;16.53;100.00;100062.11;109309;1251;67283;-63
2023/05/28 02:39:15;;;;;;;8.50;5.00;;;;;;;16.55;100.00;100063.73;109299;1251;73252;-60
2023/05/28 02:41:43;;;;;;;5.40;4.30;;;;;;;16.59;100.00;100065.98;109215;1255;60462;-61
2023/05/28 02:44:11;;;;;;;6.30;4.90;;;;;;;16.65;100.00;100064.91;109333;1251;60014;-58
2023/05/28 02:46:38;;;;;;;8.10;4.80;;;;;;;16.69;100.00;100064.16;109212;1251;72615;-57
2023/05/28 02:49:06;;;;;;;5.30;4.50;;;;;;;16.72;100.00;100060.40;109176;1250;65622;-58
2023/05/28 02:51:34;;;;;;;6.60;4.40;;;;;;;16.74;100.00;100064.02;109283;1251;72708;-59
2023/05/28 02:54:25;;;;;;;6.00;4.70;;;;;;;16.80;100.00;100067.33;109219;1251;60447;-62
2023/05/28 02:56:53;;;;;;;5.30;4.80;;;;;;;16.85;100.00;100073.47;109302;1251;59080;-62
2023/05/28 02:59:20;;;;;;;4.80;4.10;;;;;;;16.93;100.00;100080.23;109238;1251;74561;-60
2023/05/28 03:01:48;;;;;;;6.40;4.50;;;;;;;16.98;100.00;100080.23;109204;1251;65587;-57
2023/05/28 03:04:16;;;;;;;6.70;4.40;;;;;;;17.03;100.00;100085.30;109273;1251;73169;-59
2023/05/28 03:06:44;;;;;;;7.60;4.50;;;;;;;17.08;100.00;100084.34;109175;1251;62225;-58
2023/05/28 03:09:12;;;;;;;5.70;5.00;;;;;;;17.10;100.00;100087.04;109319;1251;60559;-58
2023/05/28 03:11:41;;;;;;;5.00;3.90;;;;;;;17.12;100.00;100090.67;109284;1251;74063;-57
2023/05/28 03:14:10;;;;;;;6.90;4.40;;;;;;;17.13;100.00;100096.48;109209;1251;66168;-58
2023/05/28 03:16:38;;;;;;;8.90;4.80;;;;;;;17.13;100.00;100100.79;109231;1251;73313;-63
2023/05/28 03:19:11;;;;;;;8.30;4.10;;;;;;;17.14;100.00;100100.86;109191;1254;61739;-58
2023/05/28 03:21:40;;;;;;;6.60;5.00;;;;;;;17.15;100.00;100106.95;109186;1251;58826;-59
2023/05/28 03:24:08;;;;;;;10.00;5.40;;;;;;;17.18;100.00;100109.38;109277;1251;72451;-57
2023/05/28 03:26:42;;;;;;;6.80;5.00;;;;;;;17.19;100.00;100111.66;109187;1251;66848;-60
2023/05/28 03:29:09;;;;;;;7.20;4.70;;;;;;;17.19;100.00;100117.16;109259;1251;72653;-57
2023/05/28 03:31:46;;;;;;;8.90;5.10;;;;;;;17.19;100.00;100118.27;109216;1251;61687;-57
2023/05/28 03:34:20;;;;;;;7.70;5.20;;;;;;;17.20;100.00;100119.67;109132;1251;60133;-59
2023/05/28 03:36:48;;;;;;;7.20;4.70;;;;;;;17.23;100.00;100121.06;109337;1251;74509;-57
2023/05/28 03:39:16;;;;;;;7.80;4.60;;;;;;;17.25;100.00;100122.94;109247;1251;67059;-59
2023/05/28 03:41:44;;;;;;;6.50;4.40;;;;;;;17.29;100.00;100122.32;109252;1251;72018;-58
2023/05/28 03:44:13;;;;;;;5.50;4.50;;;;;;;17.31;100.00;100126.08;109196;1253;60458;-58
2023/05/28 03:46:41;;;;;;;6.20;4.70;;;;;;;17.31;100.00;100128.67;109141;1251;59725;-59
2023/05/28 03:49:08;;;;;;;6.30;4.70;;;;;;;17.31;100.00;100135.11;109306;1251;73818;-59
2023/05/28 03:51:36;;;;;;;7.10;5.30;;;;;;;17.33;100.00;100140.64;109232;1251;66859;-58
2023/05/28 03:54:04;;;;;;;6.50;5.60;;;;;;;17.32;100.00;100144.11;109242;1251;72745;-59
2023/05/28 03:56:33;;;;;;;8.10;5.60;;;;;;;17.32;100.00;100145.79;109176;1251;60519;-62
2023/05/28 03:59:02;;;;;;;8.20;5.30;;;;;;;17.34;100.00;100150.73;109366;1251;60697;-58
2023/05/28 04:01:30;;;;;;;7.10;5.30;;;;;;;17.37;100.00;100152.73;109328;1251;73901;-58
2023/05/28 04:03:58;;;;;;;6.90;5.30;;;;;;;17.37;100.00;100151.52;109305;1251;67171;-58
2023/05/28 04:06:27;;;;;;;8.20;5.30;;;;;;;17.38;100.00;100157.50;109223;1251;71168;-57
2023/05/28 04:08:55;;;;;;;9.80;6.00;;;;;;;17.44;100.00;100156.95;109197;1251;60463;-58
2023/05/28 04:11:24;;;;;;;6.50;5.10;;;;;;;17.52;100.00;100157.48;109247;1251;60017;-58
2023/05/28 04:13:52;;;;;;;6.40;5.30;;;;;;;17.58;100.00;100158.52;109298;1251;74049;-57
2023/05/28 04:16:22;;;;;;;8.50;5.10;;;;;;;17.64;100.00;100155.27;109232;1251;66094;-58
2023/05/28 04:18:50;;;;;;;5.70;5.10;;;;;;;17.71;100.00;100157.21;109215;1251;72657;-62
2023/05/28 04:21:20;;;;;;;7.20;5.60;;;;;;;17.80;100.00;100155.89;109343;1252;61220;-57
2023/05/28 04:23:48;;;;;;;6.80;5.10;;;;;;;17.91;100.00;100164.23;109244;1251;59334;-58
2023/05/28 04:26:16;;;;;;;5.40;4.20;;;;;;;18.01;100.00;100163.90;109234;1251;73750;-58
2023/05/28 04:28:43;;;;;;;5.90;5.10;;;;;;;18.12;100.00;100162.59;109291;1251;65999;-63
2023/05/28 04:31:11;;;;;;;5.70;4.70;;;;;;;18.24;100.00;100164.13;109253;1252;72976;-62
2023/05/28 04:33:39;;;;;;;6.90;5.30;;;;;;;18.37;100.00;100164.90;109244;1252;61752;-57
2023/05/28 04:36:08;;;;;;;9.20;4.80;;;;;;;18.54;100.00;100169.05;109301;1251;60126;-59
2023/05/28 04:38:36;;;;;;;6.60;5.20;;;;;;;18.68;100.00;100174.21;109293;1251;72667;-63
2023/05/28 04:41:04;;;;;;;6.20;5.10;;;;;;;18.82;100.00;100175.95;109376;1251;66936;-57
2023/05/28 04:43:35;;;;;;;5.80;5.20;;;;;;;18.95;100.00;100178.02;109288;1251;73410;-60
2023/05/28 04:46:04;;;;;;;9.70;7.40;;;;;;;19.09;100.00;100179.98;109353;1251;61776;-58
2023/05/28 04:48:31;;;;;;;6.80;5.60;;;;;;;19.18;100.00;100180.43;109233;1251;58836;-60
2023/05/28 04:51:00;;;;;;;6.20;5.20;;;;;;;19.28;100.00;100181.69;109270;1251;73877;-60
2023/05/28 04:53:27;;;;;;;4.90;4.40;;;;;;;19.41;100.00;100181.08;109329;1250;65491;-65
2023/05/28 04:55:55;;;;;;;5.60;4.60;;;;;;;19.54;100.00;100185.16;109242;1251;70353;-60
2023/05/28 04:58:23;;;;;;;6.30;4.70;;;;;;;19.62;100.00;100180.33;109285;1251;60641;-58
2023/05/28 05:00:52;;;;;;;8.00;5.20;;;;;;;19.69;100.00;100178.85;109187;1251;60198;-61
2023/05/28 05:03:20;;;;;;;6.20;3.80;;;;;;;19.74;100.00;100173.83;109230;1251;72630;-58
2023/05/28 05:05:47;;;;;;;8.10;4.50;;;;;;;19.78;100.00;100169.48;109206;1251;67430;-60
2023/05/28 05:08:16;;;;;;;7.00;4.90;;;;;;;19.80;100.00;100164.74;109278;1251;72773;-60
2023/05/28 05:10:44;;;;;;;7.00;4.50;;;;;;;19.82;100.00;100163.51;109221;1251;60500;-63
2023/05/28 05:13:12;;;;;;;6.40;5.20;;;;;;;19.83;100.00;100161.30;109234;1251;59436;-60
2023/05/28 05:15:40;;;;;;;7.80;3.70;;;;;;;19.84;100.00;100154.54;109173;1251;73863;-63
2023/05/28 05:18:08;;;;;;;6.00;3.90;;;;;;;19.88;100.00;100149.30;109305;1251;65491;-62
2023/05/28 05:20:35;;;;;;;5.20;4.70;;;;;;;19.90;100.00;100143.29;109314;1251;72763;-68
2023/05/28 05:23:04;;;;;;;5.30;3.80;;;;;;;19.95;100.00;100143.71;109204;1252;61204;-59
2023/05/28 05:25:32;;;;;;;5.30;4.00;;;;;;;20.03;100.00;100144.27;109267;1251;58755;-66
2023/05/28 05:28:00;;;;;;;7.10;4.10;;;;;;;20.12;100.00;100137.55;109194;1251;73916;-58
2023/05/28 05:30:29;;;;;;;5.90;4.00;;;;;;;20.19;100.00;100134.50;109263;1250;65670;-58
2023/05/28 05:32:58;;;;;;;5.40;4.10;;;;;;;20.26;100.00;100126.41;109211;1250;72777;-60
2023/05/28 05:35:26;;;;;;;6.50;3.90;;;;;;;20.37;100.00;100126.10;109168;1251;61776;-65
2023/05/28 05:38:16;;;;;;;5.80;3.60;;;;;;;20.59;100.00;100125.36;109232;1251;58804;-68
2023/05/28 05:40:50;;;;;;;5.40;3.90;;;;;;;20.79;100.00;100123.77;109333;1250;73909;-67
2023/05/28 05:43:40;;;;;;;7.80;4.00;;;;;;;20.94;100.00;100121.66;109050;1251;66938;-60
2023/05/28 05:46:08;;;;;;;4.90;3.80;;;;;;;21.11;100.00;100118.59;109248;1251;72584;-63
2023/05/28 05:48:35;;;;;;;8.00;4.00;;;;;;;21.30;100.00;100123.48;109169;1255;61747;-67
2023/05/28 05:51:03;;;;;;;4.90;3.90;;;;;;;21.51;100.00;100119.79;109255;1251;60031;-60
2023/05/28 05:53:31;;;;;;;6.70;4.10;;;;;;;21.73;100.00;100119.60;109269;1251;73919;-60
2023/05/28 05:55:59;;;;;;;6.10;3.50;;;;;;;21.93;100.00;100116.05;109265;1251;66938;-62
2023/05/28 05:58:28;;;;;;;5.90;3.30;;;;;;;22.10;100.00;100116.11;109342;1251;72736;-59
2023/05/28 06:00:56;;;;;;;6.20;3.90;;;;;;;22.30;100.00;100110.17;109214;1251;61758;-60
2023/05/28 06:03:23;;;;;;;5.20;3.80;;;;;;;22.47;100.00;100107.73;109258;1251;60014;-60
2023/05/28 06:06:09;;;;;;;4.60;3.20;;;;;;;22.73;100.00;100105.07;109334;1251;73986;-60
2023/05/28 06:08:59;;;;;;;4.80;3.80;;;;;;;23.15;100.00;100100.83;109360;1251;65698;-62
2023/05/28 06:11:43;;;;;;;4.60;3.20;;;;;;;23.76;100.00;100096.20;109230;1251;72715;-60
2023/05/28 06:14:12;;;;;;;5.90;3.50;;;;;;;24.39;100.00;100091.39;109180;1251;61773;-60
2023/05/28 06:16:39;;;;;;;4.20;3.40;;;;;;;25.00;100.00;100084.52;109347;1251;58719;-59
2023/05/28 06:19:07;;;;;;;5.30;3.20;;;;;;;25.79;100.00;100074.45;109389;1251;74057;-64
2023/05/28 06:21:36;;;;;;;7.70;3.20;;;;;;;26.85;100.00;100057.63;109349;1251;67620;-59
2023/05/28 06:24:06;;;;;;;4.40;3.30;;;;;;;27.93;100.00;100044.54;109326;1251;71457;-64
2023/05/28 06:26:35;;;;;;;4.10;2.70;;;;;;;28.73;100.00;100034.10;109238;1251;60483;-59
2023/05/28 06:29:02;;;;;;;6.60;3.10;;;;;;;29.34;100.00;100032.45;109251;1251;58470;-64
2023/05/28 06:31:32;;;;;;;5.10;3.10;;;;;;;30.04;100.00;100032.21;109265;1251;73914;-59
2023/05/28 06:33:59;;;;;;;5.60;2.90;;;;;;;30.63;100.00;100028.98;109280;1251;58456;-59
2023/05/28 06:36:27;;;;;;;3.90;3.20;;;;;;;31.15;100.00;100030.30;109286;1251;71408;-60
2023/05/28 06:38:55;;;;;;;4.30;3.00;;;;;;;31.57;100.00;100031.26;109250;1251;58070;-60
2023/05/28 06:41:23;;;;;;;4.00;3.50;;;;;;;31.83;100.00;100026.11;109264;1251;58662;-59
2023/05/28 06:43:51;;;;;;;4.70;3.40;;;;;;;32.17;100.00;100026.91;109312;1250;65075;-59
2023/05/28 06:46:43;;;;;;;4.40;3.70;;;;;;;32.53;100.00;100027.98;109224;1250;58824;-59
2023/05/28 06:49:12;;;;;;;5.60;3.80;;;;;;;32.63;100.00;100028.11;109253;1251;64037;-59
2023/05/28 06:51:40;;;;;;;5.80;3.90;;;;;;;32.57;100.00;100031.75;109343;1251;58231;-60
2023/05/28 06:54:08;;;;;;;6.60;4.00;;;;;;;32.53;100.00;100033.92;109280;1251;58141;-63
2023/05/28 06:56:36;;;;;;;4.60;3.40;;;;;;;32.50;100.00;100037.85;109221;1251;65453;-59
2023/05/28 06:59:24;;;;;;;4.10;3.70;;;;;;;32.61;100.00;100038.81;109381;1251;58657;-60
2023/05/28 07:02:12;;;;;;;5.30;3.70;;;;;;;33.10;100.00;100037.28;109000;1251;66093;-60
2023/05/28 07:05:09;;;;;;;4.80;4.30;;;;;;;33.61;100.00;100035.23;109147;1251;58856;-59
2023/05/28 07:07:38;;;;;;;6.40;4.00;;;;;;;33.76;100.00;100039.30;109282;1251;62293;-64
2023/05/28 07:10:06;;;;;;;4.30;3.90;;;;;;;33.82;99.48;100037.44;109323;1251;65853;-59
2023/05/28 07:12:34;;;;;;;4.50;3.80;;;;;;;34.01;99.76;100041.39;109265;1250;58715;-59
2023/05/28 07:15:03;;;;;;;5.30;3.80;;;;;;;34.39;93.61;100037.66;109350;1251;64304;-60
2023/05/28 07:17:32;;;;;;;5.20;4.60;;;;;;;34.63;85.53;100037.58;109265;1251;58552;-66
2023/05/28 07:20:00;;;;;;;5.10;4.00;;;;;;;34.73;81.19;100039.89;109216;1251;58445;-61
2023/05/28 07:22:51;;;;;;;5.00;4.40;;;;;;;34.59;79.80;100041.13;109220;1251;63701;-62
2023/05/28 07:25:18;;;;;;;4.30;3.90;;;;;;;34.46;83.58;100037.75;109280;1250;58737;-61
2023/05/28 07:27:46;;;;;;;5.00;3.70;;;;;;;34.40;89.22;100036.98;109218;1251;64337;-61
2023/05/28 07:30:20;;;;;;;4.70;3.80;;;;;;;34.53;82.82;100031.60;109252;1251;58201;-59
2023/05/28 07:32:48;;;;;;;5.50;3.90;;;;;;;34.50;75.17;100033.76;109260;1251;58604;-62
2023/05/28 07:35:16;;;;;;;4.00;3.60;;;;;;;34.23;76.68;100032.69;109309;1250;65067;-60
2023/05/28 07:37:44;;;;;;;6.30;4.60;;;;;;;33.98;78.99;100033.02;109251;1251;58777;-61
2023/05/28 07:40:12;;;;;;;5.10;4.00;;;;;;;33.81;80.18;100030.86;109265;1251;62530;-58
2023/05/28 07:42:41;;;;;;;5.80;4.00;;;;;;;33.59;78.23;100035.89;109262;1251;58181;-62
2023/05/28 07:45:09;;;;;;;5.40;3.80;;;;;;;33.32;82.87;100033.79;109294;1251;58096;-61
2023/05/28 07:47:37;;;;;;;6.10;3.70;;;;;;;32.94;83.15;100029.84;109265;1251;63754;-58
2023/05/28 07:50:15;;;;;;;5.20;4.10;;;;;;;32.51;94.49;100032.56;109380;1251;58388;-60
2023/05/28 07:53:09;;;;;;;4.70;4.00;;;;;;;32.55;97.86;100030.91;109304;1251;63744;-60
2023/05/28 07:55:36;;;;;;;6.70;4.00;;;;;;;32.83;99.22;100027.86;109288;1253;58191;-60
2023/05/28 07:58:05;;;;;;;4.70;3.60;;;;;;;33.13;95.44;100027.13;109295;1251;58269;-61
2023/05/28 08:00:33;;;;;;;3.90;3.50;;;;;;;33.26;89.77;100024.11;109254;1251;63619;-61
2023/05/28 08:03:02;;;;;;;7.70;4.30;;;;;;;33.21;88.65;100025.20;109327;1252;58235;-60
2023/05/28 08:05:37;;;;;;;4.10;3.70;;;;;;;33.01;85.78;100020.05;109372;1251;62596;-60
2023/05/28 08:08:04;;;;;;;4.50;3.70;;;;;;;32.78;84.46;100016.75;109257;1251;58658;-61
2023/05/28 08:10:32;;;;;;;5.90;4.00;;;;;;;32.55;89.60;100015.17;109222;1251;60156;-61
2023/05/28 08:13:01;;;;;;;8.10;4.20;;;;;;;32.35;90.40;100016.96;109214;1251;65001;-58
2023/05/28 08:15:28;;;;;;;6.90;4.00;;;;;;;32.06;88.66;100013.38;109345;1251;59279;-59
2023/05/28 08:17:56;;;;;;;5.00;3.90;;;;;;;31.71;92.81;100014.54;109378;1251;63878;-58
2023/05/28 08:20:24;;;;;;;6.10;4.20;;;;;;;31.45;97.27;100014.05;109283;1251;58180;-62
2023/05/28 08:22:56;;;;;;;6.20;4.60;;;;;;;31.27;99.27;100013.69;109355;1253;58081;-58
2023/05/28 08:25:24;;;;;;;5.20;3.60;;;;;;;31.16;100.00;100008.11;109409;1251;63708;-58
2023/05/28 08:27:55;;;;;;;5.40;3.50;;;;;;;31.09;97.73;100010.27;109283;1251;58221;-58
2023/05/28 08:30:24;;;;;;;3.90;3.30;;;;;;;31.07;99.50;100011.11;109259;1252;62525;-61
2023/05/28 08:32:58;;;;;;;5.20;4.20;;;;;;;31.16;99.95;100013.88;109204;1253;58129;-58
2023/05/28 08:35:26;;;;;;;5.00;3.80;;;;;;;31.30;98.49;100012.56;109284;1251;58569;-58
2023/05/28 08:37:54;;;;;;;4.50;3.00;;;;;;;31.54;98.49;100015.05;109358;1250;65075;-57
2023/05/28 08:40:46;;;;;;;4.00;3.20;;;;;;;31.87;98.08;100013.92;109223;1251;58487;-59
2023/05/28 08:43:14;;;;;;;4.60;3.40;;;;;;;32.20;99.65;100018.48;109025;1251;62521;-58
2023/05/28 08:45:42;;;;;;;4.80;3.40;;;;;;;32.50;99.04;100019.42;109088;1251;58584;-57
2023/05/28 08:48:10;;;;;;;5.70;3.70;;;;;;;32.71;92.38;100019.48;109269;1251;58620;-61
2023/05/28 08:50:40;;;;;;;4.90;3.70;;;;;;;32.65;88.20;100024.52;109229;1251;64472;-58
2023/05/28 08:53:20;;;;;;;5.40;3.60;;;;;;;32.14;91.97;100024.21;109318;1251;58559;-58
2023/05/28 08:55:48;;;;;;;7.10;4.60;;;;;;;31.18;100.00;100024.84;109242;1251;63799;-58
2023/05/28 08:58:19;;;;;;;4.70;4.20;;;;;;;30.15;100.00;100026.30;109251;1251;58643;-58
2023/05/28 09:00:48;;;;;;;6.00;4.80;;;;;;;29.26;100.00;100028.23;109330;1257;58546;-59
2023/05/28 09:03:34;;;;;;;5.50;4.30;;;;;;;28.45;100.00;100027.64;109285;1251;65018;-57
2023/05/28 09:06:25;;;;;;;5.90;4.10;;;;;;;27.70;100.00;100030.50;109337;1251;67101;-57
2023/05/28 09:08:54;;;;;;;5.10;4.60;;;;;;;27.27;100.00;100027.48;109278;1253;74806;-57
2023/05/28 09:11:36;;;;;;;5.20;4.70;;;;;;;27.13;100.00;100019.40;109317;1251;58846;-59
2023/05/28 09:14:11;;;;;;;5.30;4.70;;;;;;;27.35;100.00;100018.80;109298;1253;58960;-58
2023/05/28 09:16:42;;;;;;;5.70;4.70;;;;;;;27.80;100.00;100017.85;109302;1251;73994;-57
2023/05/28 09:19:16;;;;;;;8.00;4.60;;;;;;;28.32;100.00;100015.48;109078;1254;233071;-60
2023/05/28 09:21:55;;;;;;;6.60;4.70;;;;;;;28.85;100.00;100009.50;109339;1251;72719;-58
2023/05/28 09:24:28;;;;;;;;;;;;;;;29.57;100.00;100008.95;109351;1251;60242;-57
2023/05/28 09:27:19;;;;;;;5.50;4.60;;;;;;;30.20;100.00;100005.21;109359;1251;58745;-57
2023/05/28 09:29:47;;;;;;;5.90;4.70;;;;;;;30.77;100.00;100004.34;109133;1251;75078;-58
2023/05/28 09:32:21;;;;;;;7.90;4.40;;;;;;;31.18;100.00;99998.41;109351;1252;67225;-57
2023/05/28 09:34:52;;;;;;;6.20;4.40;;;;;;;31.47;100.00;99997.96;109293;1252;63173;-61
2023/05/28 09:37:20;;;;;;;7.30;4.80;;;;;;;31.79;100.00;99992.63;109401;1250;58182;-58
2023/05/28 09:39:47;;;;;;;5.90;4.20;;;;;;;32.14;99.25;99992.30;109360;1252;58153;-57
2023/05/28 09:42:15;;;;;;;6.90;4.80;;;;;;;32.49;98.35;99989.77;109127;1251;65011;-58
2023/05/28 09:44:43;;;;;;;6.00;4.40;;;;;;;32.86;90.17;99985.33;109351;1251;58257;-57
2023/05/28 09:47:15;;;;;;;5.60;4.00;;;;;;;33.20;83.74;99989.20;109276;1253;62499;-57
2023/05/28 09:49:44;;;;;;;6.20;4.20;;;;;;;33.41;79.47;99990.89;109359;1251;58306;-57
2023/05/28 09:52:19;;;;;;;5.30;4.20;;;;;;;33.57;82.92;99986.98;109373;1251;58266;-57
2023/05/28 09:54:51;;;;;;;5.30;4.40;;;;;;;33.93;69.85;99989.09;109371;1251;64980;-58
2023/05/28 09:58:06;;;;;;;5.20;3.90;;;;;;;34.23;55.38;99991.17;109373;1253;58211;-57
2023/05/28 10:00:35;;;;;;;8.10;4.30;;;;;;;34.41;56.40;99991.77;109413;1251;62590;-57
2023/05/28 10:03:12;;;;;;;5.00;4.10;;;;;;;34.58;55.59;99990.97;109369;1251;58200;-58
2023/05/28 10:05:42;;;;;;;5.90;3.70;;;;;;;34.46;50.12;99993.84;109375;1251;58263;-59
2023/05/28 10:08:11;;;;;;;4.80;4.10;;;;;;;33.64;49.58;99999.16;109305;1253;63786;-57
2023/05/28 10:10:40;;;;;;;5.30;3.40;;;;;;;32.76;56.55;99997.34;109409;1251;58611;-57
2023/05/28 10:13:09;;;;;;;6.00;3.80;;;;;;;32.17;67.38;100000.98;109360;1252;63891;-57
2023/05/28 10:15:37;;;;;;;4.30;3.20;;;;;;;31.88;73.19;99995.65;109313;1251;58584;-60
2023/05/28 10:18:06;;;;;;;4.40;3.40;;;;;;;31.75;69.87;99993.86;109283;1253;58047;-57
2023/05/28 10:20:34;;;;;;;5.50;3.30;;;;;;;31.63;69.71;99990.90;109407;1251;63855;-57
2023/05/28 10:23:02;;;;;;;4.00;2.80;;;;;;;31.65;75.82;99992.59;109400;1251;58292;-59
2023/05/28 10:25:30;;;;;;;3.40;2.70;;;;;;;31.67;60.47;99987.84;109303;1251;63849;-59
2023/05/28 10:28:02;;;;;;;5.10;3.50;;;;;;;31.69;66.72;99986.05;109268;1251;58291;-59
2023/05/28 10:30:33;;;;;;;4.90;3.70;;;;;;;31.79;65.54;99987.08;109385;1251;58053;-57
2023/05/28 10:33:05;;;;;;;4.40;3.30;;;;;;;31.78;65.26;99985.11;109411;1251;65036;-56
2023/05/28 10:35:35;;;;;;;5.10;3.60;;;;;;;31.54;66.98;99986.59;109315;1252;58319;-57
2023/05/28 10:38:06;;;;;;;6.20;3.10;;;;;;;31.14;70.71;99987.23;109367;1251;73501;-57
2023/05/28 10:40:35;;;;;;;5.70;3.80;;;;;;;30.56;77.70;99987.25;109380;1251;58215;-56
2023/05/28 10:43:02;;;;;;;5.10;3.20;;;;;;;30.13;89.54;99989.66;109407;1251;58215;-56
2023/05/28 10:45:37;;;;;;;5.70;3.40;;;;;;;30.05;87.89;99982.68;109328;1252;63713;-56
2023/05/28 10:48:05;;;;;;;4.20;3.00;;;;;;;29.90;87.03;99984.07;109339;1252;58673;-56
2023/05/28 10:50:55;;;;;;;3.90;3.10;;;;;;;29.74;81.41;99979.39;109351;1252;72762;-56
2023/05/28 10:53:24;;;;;;;4.90;3.60;;;;;;;29.66;90.89;99984.95;109298;1253;59813;-56
2023/05/28 10:55:53;;;;;;;6.40;3.40;;;;;;;30.06;91.76;99984.15;109351;1251;58962;-58
2023/05/28 10:58:35;;;;;;;4.30;3.20;;;;;;;30.60;92.58;99983.54;109352;1251;65152;-57
2023/05/28 11:01:09;;;;;;;4.70;3.20;;;;;;;30.80;86.01;99989.39;109306;1251;58357;-59
2023/05/28 11:04:07;;;;;;;4.90;3.60;;;;;;;30.48;75.66;99991.88;109316;1253;73597;-57
2023/05/28 11:06:40;;;;;;;4.70;3.30;;;;;;;30.01;88.06;99997.20;109208;1252;60245;-56
2023/05/28 11:09:08;;;;;;;4.40;3.30;;;;;;;29.96;94.47;100004.80;109351;1251;58816;-56
2023/05/28 11:11:37;;;;;;;3.60;2.80;;;;;;;29.82;93.46;100008.30;109358;1251;74515;-56
2023/05/28 11:14:05;;;;;;;4.10;3.50;;;;;;;29.42;94.51;100011.41;109322;1251;66001;-56
2023/05/28 11:16:33;;;;;;;4.80;3.50;;;;;;;29.03;99.66;100010.98;109350;1251;71295;-58
2023/05/28 11:19:02;;;;;;;4.30;3.50;;;;;;;28.92;100.00;100008.39;109365;1251;60204;-56
2023/05/28 11:21:32;;;;;;;8.80;3.90;;;;;;;28.98;98.30;100006.69;109322;1251;60377;-56
2023/05/28 11:24:03;;;;;;;4.70;3.40;;;;;;;28.99;99.78;100004.92;109387;1251;73572;-56
2023/05/28 11:26:33;;;;;;;4.00;3.10;;;;;;;29.11;100.00;100006.09;109320;1256;68519;-57